sensor_id;sensor_type;location;lat;lon;timestamp;P1;durP1;ratioP1;P2;durP2;ratioP2
549;SDS011;20066;48.764;9.176;2024-03-22T00:01:46;22.27;;;10.90;;
549;SDS011;20066;48.764;9.176;2024-03-22T00:04:14;24.40;;;12.77;;
549;SDS011;20066;48.764;9.176;2024-03-22T00:06:43;21.03;;;11.40;;
549;SDS011;20066;48.764;9.176;2024-03-22T00:09:12;25.47;;;13.00;;
549;SDS011;20066;48.764;9.176;2024-03-22T00:11:41;24.10;;;12.40;;
549;SDS011;20066;48.764;9.176;2024-03-22T00:14:09;21.83;;;12.43;;
549;SDS011;20066;48.764;9.176;2024-03-22T00:16:35;24.43;;;12.13;;
549;SDS011;20066;48.764;9.176;2024-03-22T00:19:02;20.60;;;11.63;;
549;SDS011;20066;48.764;9.176;2024-03-22T00:21:28;22.67;;;10.70;;
549;SDS011;20066;48.764;9.176;2024-03-22T00:23:55;27.70;;;11.63;;
549;SDS011;20066;48.764;9.176;2024-03-22T00:26:21;21.37;;;10.90;;
549;SDS011;20066;48.764;9.176;2024-03-22T00:28:48;24.40;;;11.30;;
549;SDS011;20066;48.764;9.176;2024-03-22T00:31:14;19.63;;;11.37;;
549;SDS011;20066;48.764;9.176;2024-03-22T00:33:42;23.47;;;10.30;;
549;SDS011;20066;48.764;9.176;2024-03-22T00:36:08;19.60;;;11.00;;
549;SDS011;20066;48.764;9.176;2024-03-22T00:38:34;18.97;;;10.77;;
549;SDS011;20066;48.764;9.176;2024-03-22T00:41:00;21.47;;;11.50;;
549;SDS011;20066;48.764;9.176;2024-03-22T00:43:27;23.47;;;11.60;;
549;SDS011;20066;48.764;9.176;2024-03-22T00:45:53;22.43;;;11.27;;
549;SDS011;20066;48.764;9.176;2024-03-22T00:48:20;23.40;;;11.10;;
549;SDS011;20066;48.764;9.176;2024-03-22T00:50:46;15.87;;;10.10;;
549;SDS011;20066;48.764;9.176;2024-03-22T00:53:12;20.40;;;11.40;;
549;SDS011;20066;48.764;9.176;2024-03-22T00:55:38;21.20;;;10.70;;
549;SDS011;20066;48.764;9.176;2024-03-22T00:58:05;23.37;;;11.00;;
549;SDS011;20066;48.764;9.176;2024-03-22T01:00:31;24.37;;;11.97;;
549;SDS011;20066;48.764;9.176;2024-03-22T01:02:58;24.53;;;11.47;;
549;SDS011;20066;48.764;9.176;2024-03-22T01:05:23;26.23;;;11.03;;
549;SDS011;20066;48.764;9.176;2024-03-22T01:07:51;19.40;;;11.37;;
549;SDS011;20066;48.764;9.176;2024-03-22T01:10:17;19.47;;;10.33;;
549;SDS011;20066;48.764;9.176;2024-03-22T01:12:44;20.80;;;10.47;;
549;SDS011;20066;48.764;9.176;2024-03-22T01:15:09;21.23;;;10.80;;
549;SDS011;20066;48.764;9.176;2024-03-22T01:17:36;23.00;;;10.60;;
549;SDS011;20066;48.764;9.176;2024-03-22T01:20:02;16.67;;;10.03;;
549;SDS011;20066;48.764;9.176;2024-03-22T01:22:29;20.00;;;10.50;;
549;SDS011;20066;48.764;9.176;2024-03-22T01:24:54;19.30;;;11.27;;
549;SDS011;20066;48.764;9.176;2024-03-22T01:27:21;20.67;;;10.50;;
549;SDS011;20066;48.764;9.176;2024-03-22T01:29:47;20.07;;;9.93;;
549;SDS011;20066;48.764;9.176;2024-03-22T01:32:13;22.50;;;10.07;;
549;SDS011;20066;48.764;9.176;2024-03-22T01:34:39;21.90;;;12.13;;
549;SDS011;20066;48.764;9.176;2024-03-22T01:37:06;16.93;;;10.13;;
549;SDS011;20066;48.764;9.176;2024-03-22T01:39:32;17.10;;;9.57;;
549;SDS011;20066;48.764;9.176;2024-03-22T01:41:58;19.27;;;9.97;;
549;SDS011;20066;48.764;9.176;2024-03-22T01:44:26;16.73;;;9.50;;
549;SDS011;20066;48.764;9.176;2024-03-22T01:46:54;17.95;;;10.07;;
549;SDS011;20066;48.764;9.176;2024-03-22T01:49:20;17.92;;;10.52;;
549;SDS011;20066;48.764;9.176;2024-03-22T01:51:47;19.70;;;10.50;;
549;SDS011;20066;48.764;9.176;2024-03-22T01:54:13;19.63;;;10.47;;
549;SDS011;20066;48.764;9.176;2024-03-22T01:56:42;19.10;;;10.35;;
549;SDS011;20066;48.764;9.176;2024-03-22T01:59:08;17.25;;;10.52;;
549;SDS011;20066;48.764;9.176;2024-03-22T02:01:36;17.00;;;9.63;;
549;SDS011;20066;48.764;9.176;2024-03-22T02:04:01;18.30;;;9.93;;
549;SDS011;20066;48.764;9.176;2024-03-22T02:06:28;19.23;;;9.88;;
549;SDS011;20066;48.764;9.176;2024-03-22T02:08:55;14.50;;;9.60;;
549;SDS011;20066;48.764;9.176;2024-03-22T02:11:22;19.15;;;9.68;;
549;SDS011;20066;48.764;9.176;2024-03-22T02:13:48;18.43;;;10.50;;
549;SDS011;20066;48.764;9.176;2024-03-22T02:16:15;14.68;;;9.00;;
549;SDS011;20066;48.764;9.176;2024-03-22T02:18:41;16.30;;;9.10;;
549;SDS011;20066;48.764;9.176;2024-03-22T02:21:09;18.10;;;8.70;;
549;SDS011;20066;48.764;9.176;2024-03-22T02:23:35;13.43;;;7.80;;
549;SDS011;20066;48.764;9.176;2024-03-22T02:26:04;17.00;;;9.55;;
549;SDS011;20066;48.764;9.176;2024-03-22T02:28:31;18.08;;;9.98;;
549;SDS011;20066;48.764;9.176;2024-03-22T02:30:59;16.17;;;9.15;;
549;SDS011;20066;48.764;9.176;2024-03-22T02:33:25;18.10;;;9.65;;
549;SDS011;20066;48.764;9.176;2024-03-22T02:35:53;16.77;;;9.15;;
549;SDS011;20066;48.764;9.176;2024-03-22T02:38:18;18.93;;;9.30;;
549;SDS011;20066;48.764;9.176;2024-03-22T02:40:49;17.77;;;9.52;;
549;SDS011;20066;48.764;9.176;2024-03-22T02:43:17;16.05;;;9.82;;
549;SDS011;20066;48.764;9.176;2024-03-22T02:45:46;15.65;;;9.07;;
549;SDS011;20066;48.764;9.176;2024-03-22T02:48:13;30.35;;;10.57;;
549;SDS011;20066;48.764;9.176;2024-03-22T02:50:39;17.50;;;9.70;;
549;SDS011;20066;48.764;9.176;2024-03-22T02:53:05;21.50;;;10.27;;
549;SDS011;20066;48.764;9.176;2024-03-22T02:55:36;20.33;;;10.27;;
549;SDS011;20066;48.764;9.176;2024-03-22T02:58:03;17.25;;;10.20;;
549;SDS011;20066;48.764;9.176;2024-03-22T03:00:30;22.02;;;11.20;;
549;SDS011;20066;48.764;9.176;2024-03-22T03:02:57;18.00;;;10.20;;
549;SDS011;20066;48.764;9.176;2024-03-22T03:05:25;16.63;;;9.90;;
549;SDS011;20066;48.764;9.176;2024-03-22T03:07:51;19.08;;;11.05;;
549;SDS011;20066;48.764;9.176;2024-03-22T03:10:18;18.27;;;9.93;;
549;SDS011;20066;48.764;9.176;2024-03-22T03:12:43;21.10;;;10.30;;
549;SDS011;20066;48.764;9.176;2024-03-22T03:15:10;19.92;;;10.20;;
549;SDS011;20066;48.764;9.176;2024-03-22T03:17:36;23.60;;;12.00;;
549;SDS011;20066;48.764;9.176;2024-03-22T03:20:03;19.92;;;10.10;;
549;SDS011;20066;48.764;9.176;2024-03-22T03:22:33;21.23;;;10.77;;
549;SDS011;20066;48.764;9.176;2024-03-22T03:25:00;19.15;;;10.70;;
549;SDS011;20066;48.764;9.176;2024-03-22T03:27:26;25.67;;;11.50;;
549;SDS011;20066;48.764;9.176;2024-03-22T03:29:53;21.88;;;11.48;;
549;SDS011;20066;48.764;9.176;2024-03-22T03:32:19;16.50;;;10.10;;
549;SDS011;20066;48.764;9.176;2024-03-22T03:34:46;24.45;;;11.93;;
549;SDS011;20066;48.764;9.176;2024-03-22T03:37:11;19.07;;;11.00;;
549;SDS011;20066;48.764;9.176;2024-03-22T03:39:38;23.33;;;10.68;;
549;SDS011;20066;48.764;9.176;2024-03-22T03:42:04;18.97;;;9.90;;
549;SDS011;20066;48.764;9.176;2024-03-22T03:44:30;15.85;;;9.88;;
549;SDS011;20066;48.764;9.176;2024-03-22T03:46:56;18.77;;;10.73;;
549;SDS011;20066;48.764;9.176;2024-03-22T03:49:23;19.27;;;10.98;;
549;SDS011;20066;48.764;9.176;2024-03-22T03:51:48;23.43;;;10.80;;
549;SDS011;20066;48.764;9.176;2024-03-22T03:54:15;20.02;;;10.57;;
549;SDS011;20066;48.764;9.176;2024-03-22T03:56:41;19.23;;;11.20;;
549;SDS011;20066;48.764;9.176;2024-03-22T03:59:08;17.88;;;10.80;;
549;SDS011;20066;48.764;9.176;2024-03-22T04:01:33;19.33;;;10.63;;
549;SDS011;20066;48.764;9.176;2024-03-22T04:04:00;18.60;;;10.57;;
549;SDS011;20066;48.764;9.176;2024-03-22T04:06:26;17.47;;;9.80;;
549;SDS011;20066;48.764;9.176;2024-03-22T04:08:52;20.23;;;10.70;;
549;SDS011;20066;48.764;9.176;2024-03-22T04:11:18;21.00;;;10.23;;
549;SDS011;20066;48.764;9.176;2024-03-22T04:13:46;19.92;;;10.02;;
549;SDS011;20066;48.764;9.176;2024-03-22T04:16:12;21.77;;;11.00;;
549;SDS011;20066;48.764;9.176;2024-03-22T04:18:39;17.95;;;10.10;;
549;SDS011;20066;48.764;9.176;2024-03-22T04:21:05;18.20;;;10.53;;
549;SDS011;20066;48.764;9.176;2024-03-22T04:23:32;20.25;;;9.45;;
549;SDS011;20066;48.764;9.176;2024-03-22T04:25:58;18.13;;;9.80;;
549;SDS011;20066;48.764;9.176;2024-03-22T04:28:26;18.17;;;10.70;;
549;SDS011;20066;48.764;9.176;2024-03-22T04:30:54;18.00;;;10.40;;
549;SDS011;20066;48.764;9.176;2024-03-22T04:33:22;19.55;;;10.10;;
549;SDS011;20066;48.764;9.176;2024-03-22T04:35:48;17.85;;;9.52;;
549;SDS011;20066;48.764;9.176;2024-03-22T04:38:15;16.17;;;9.23;;
549;SDS011;20066;48.764;9.176;2024-03-22T04:40:42;17.83;;;9.80;;
549;SDS011;20066;48.764;9.176;2024-03-22T04:43:09;20.65;;;9.25;;
549;SDS011;20066;48.764;9.176;2024-03-22T04:45:36;15.32;;;9.52;;
549;SDS011;20066;48.764;9.176;2024-03-22T04:48:03;18.57;;;10.23;;
549;SDS011;20066;48.764;9.176;2024-03-22T04:50:31;20.95;;;9.65;;
549;SDS011;20066;48.764;9.176;2024-03-22T04:52:56;16.13;;;9.60;;
549;SDS011;20066;48.764;9.176;2024-03-22T04:55:23;14.93;;;9.05;;
549;SDS011;20066;48.764;9.176;2024-03-22T04:57:49;15.53;;;9.10;;
549;SDS011;20066;48.764;9.176;2024-03-22T05:00:18;15.90;;;9.85;;
549;SDS011;20066;48.764;9.176;2024-03-22T05:02:44;18.98;;;9.13;;
549;SDS011;20066;48.764;9.176;2024-03-22T05:05:11;18.70;;;8.07;;
549;SDS011;20066;48.764;9.176;2024-03-22T05:07:38;14.80;;;8.30;;
549;SDS011;20066;48.764;9.176;2024-03-22T05:10:07;17.08;;;9.10;;
549;SDS011;20066;48.764;9.176;2024-03-22T05:12:34;14.80;;;8.65;;
549;SDS011;20066;48.764;9.176;2024-03-22T05:15:05;14.15;;;8.85;;
549;SDS011;20066;48.764;9.176;2024-03-22T05:17:32;16.20;;;8.75;;
549;SDS011;20066;48.764;9.176;2024-03-22T05:20:01;14.43;;;8.75;;
549;SDS011;20066;48.764;9.176;2024-03-22T05:22:31;13.82;;;8.05;;
549;SDS011;20066;48.764;9.176;2024-03-22T05:25:00;15.68;;;8.48;;
549;SDS011;20066;48.764;9.176;2024-03-22T05:27:27;16.80;;;8.55;;
549;SDS011;20066;48.764;9.176;2024-03-22T05:29:54;16.00;;;8.65;;
549;SDS011;20066;48.764;9.176;2024-03-22T05:32:19;17.90;;;7.70;;
549;SDS011;20066;48.764;9.176;2024-03-22T05:34:46;14.23;;;7.80;;
549;SDS011;20066;48.764;9.176;2024-03-22T05:37:17;14.80;;;8.53;;
549;SDS011;20066;48.764;9.176;2024-03-22T05:39:44;15.93;;;8.33;;
549;SDS011;20066;48.764;9.176;2024-03-22T05:42:10;15.27;;;8.90;;
549;SDS011;20066;48.764;9.176;2024-03-22T05:44:38;16.88;;;9.23;;
549;SDS011;20066;48.764;9.176;2024-03-22T05:47:04;12.88;;;7.28;;
549;SDS011;20066;48.764;9.176;2024-03-22T05:49:33;17.90;;;8.73;;
549;SDS011;20066;48.764;9.176;2024-03-22T05:52:01;14.07;;;8.90;;
549;SDS011;20066;48.764;9.176;2024-03-22T05:54:37;15.83;;;8.67;;
549;SDS011;20066;48.764;9.176;2024-03-22T05:57:04;19.50;;;9.20;;
549;SDS011;20066;48.764;9.176;2024-03-22T05:59:31;12.63;;;8.13;;
549;SDS011;20066;48.764;9.176;2024-03-22T06:01:59;16.07;;;8.70;;
549;SDS011;20066;48.764;9.176;2024-03-22T06:04:27;14.60;;;8.03;;
549;SDS011;20066;48.764;9.176;2024-03-22T06:07:04;15.97;;;9.17;;
549;SDS011;20066;48.764;9.176;2024-03-22T06:09:46;14.43;;;9.80;;
549;SDS011;20066;48.764;9.176;2024-03-22T06:12:15;15.10;;;8.70;;
549;SDS011;20066;48.764;9.176;2024-03-22T06:14:43;20.23;;;8.93;;
549;SDS011;20066;48.764;9.176;2024-03-22T06:17:11;21.23;;;9.27;;
549;SDS011;20066;48.764;9.176;2024-03-22T06:19:42;17.13;;;8.57;;
549;SDS011;20066;48.764;9.176;2024-03-22T06:22:08;16.17;;;8.57;;
549;SDS011;20066;48.764;9.176;2024-03-22T06:24:39;17.03;;;8.57;;
549;SDS011;20066;48.764;9.176;2024-03-22T06:27:05;15.33;;;8.90;;
549;SDS011;20066;48.764;9.176;2024-03-22T06:29:33;17.63;;;8.77;;
549;SDS011;20066;48.764;9.176;2024-03-22T06:31:59;15.53;;;8.47;;
549;SDS011;20066;48.764;9.176;2024-03-22T06:34:27;14.30;;;8.20;;
549;SDS011;20066;48.764;9.176;2024-03-22T06:36:52;16.20;;;9.07;;
549;SDS011;20066;48.764;9.176;2024-03-22T06:39:19;13.47;;;8.67;;
549;SDS011;20066;48.764;9.176;2024-03-22T06:41:45;17.33;;;8.80;;
549;SDS011;20066;48.764;9.176;2024-03-22T06:44:12;17.40;;;9.70;;
549;SDS011;20066;48.764;9.176;2024-03-22T06:46:40;13.97;;;8.33;;
549;SDS011;20066;48.764;9.176;2024-03-22T06:49:07;17.97;;;9.47;;
549;SDS011;20066;48.764;9.176;2024-03-22T06:51:33;16.57;;;8.57;;
549;SDS011;20066;48.764;9.176;2024-03-22T06:54:03;14.37;;;8.10;;
549;SDS011;20066;48.764;9.176;2024-03-22T06:56:29;12.07;;;7.90;;
549;SDS011;20066;48.764;9.176;2024-03-22T06:58:59;17.77;;;8.87;;
549;SDS011;20066;48.764;9.176;2024-03-22T07:01:29;17.87;;;8.80;;
549;SDS011;20066;48.764;9.176;2024-03-22T07:04:22;18.00;;;8.80;;
549;SDS011;20066;48.764;9.176;2024-03-22T07:06:48;17.83;;;8.43;;
549;SDS011;20066;48.764;9.176;2024-03-22T07:09:24;14.50;;;8.70;;
549;SDS011;20066;48.764;9.176;2024-03-22T07:11:53;21.80;;;10.90;;
549;SDS011;20066;48.764;9.176;2024-03-22T07:14:19;15.20;;;9.00;;
549;SDS011;20066;48.764;9.176;2024-03-22T07:16:45;15.00;;;9.47;;
549;SDS011;20066;48.764;9.176;2024-03-22T07:19:12;17.10;;;9.77;;
549;SDS011;20066;48.764;9.176;2024-03-22T07:21:38;16.57;;;8.33;;
549;SDS011;20066;48.764;9.176;2024-03-22T07:24:07;17.17;;;8.87;;
549;SDS011;20066;48.764;9.176;2024-03-22T07:26:34;15.90;;;9.20;;
549;SDS011;20066;48.764;9.176;2024-03-22T07:29:05;16.27;;;9.67;;
549;SDS011;20066;48.764;9.176;2024-03-22T07:31:36;14.17;;;8.90;;
549;SDS011;20066;48.764;9.176;2024-03-22T07:34:03;20.73;;;10.23;;
549;SDS011;20066;48.764;9.176;2024-03-22T07:36:31;20.97;;;10.70;;
549;SDS011;20066;48.764;9.176;2024-03-22T07:39:08;20.23;;;10.23;;
549;SDS011;20066;48.764;9.176;2024-03-22T07:41:33;21.90;;;10.17;;
549;SDS011;20066;48.764;9.176;2024-03-22T07:44:01;16.50;;;9.27;;
549;SDS011;20066;48.764;9.176;2024-03-22T07:46:31;17.10;;;10.10;;
549;SDS011;20066;48.764;9.176;2024-03-22T07:49:00;16.93;;;8.97;;
549;SDS011;20066;48.764;9.176;2024-03-22T07:51:25;20.30;;;10.13;;
549;SDS011;20066;48.764;9.176;2024-03-22T07:53:54;17.37;;;9.17;;
549;SDS011;20066;48.764;9.176;2024-03-22T07:56:20;19.93;;;8.60;;
549;SDS011;20066;48.764;9.176;2024-03-22T07:58:49;16.13;;;8.40;;
549;SDS011;20066;48.764;9.176;2024-03-22T08:01:18;21.10;;;10.10;;
549;SDS011;20066;48.764;9.176;2024-03-22T08:03:54;15.60;;;7.30;;
549;SDS011;20066;48.764;9.176;2024-03-22T08:06:23;12.67;;;7.20;;
549;SDS011;20066;48.764;9.176;2024-03-22T08:08:58;13.10;;;7.47;;
549;SDS011;20066;48.764;9.176;2024-03-22T08:11:27;11.80;;;6.53;;
549;SDS011;20066;48.764;9.176;2024-03-22T08:14:00;10.63;;;6.80;;
549;SDS011;20066;48.764;9.176;2024-03-22T08:16:30;12.17;;;6.73;;
549;SDS011;20066;48.764;9.176;2024-03-22T08:18:59;14.90;;;7.00;;
549;SDS011;20066;48.764;9.176;2024-03-22T08:21:25;11.70;;;7.50;;
549;SDS011;20066;48.764;9.176;2024-03-22T08:23:52;13.10;;;6.87;;
549;SDS011;20066;48.764;9.176;2024-03-22T08:26:20;12.03;;;7.00;;
549;SDS011;20066;48.764;9.176;2024-03-22T08:28:47;16.83;;;7.43;;
549;SDS011;20066;48.764;9.176;2024-03-22T08:31:14;11.97;;;6.70;;
549;SDS011;20066;48.764;9.176;2024-03-22T08:33:42;13.63;;;7.43;;
549;SDS011;20066;48.764;9.176;2024-03-22T08:36:10;11.83;;;6.70;;
549;SDS011;20066;48.764;9.176;2024-03-22T08:38:46;351.20;;;282.23;;
549;SDS011;20066;48.764;9.176;2024-03-22T08:41:13;742.27;;;558.43;;
549;SDS011;20066;48.764;9.176;2024-03-22T08:43:42;181.63;;;172.20;;
549;SDS011;20066;48.764;9.176;2024-03-22T08:46:08;91.53;;;7.33;;
549;SDS011;20066;48.764;9.176;2024-03-22T08:48:34;87.90;;;6.87;;
549;SDS011;20066;48.764;9.176;2024-03-22T08:51:02;79.40;;;5.47;;
549;SDS011;20066;48.764;9.176;2024-03-22T08:53:31;82.47;;;5.83;;
549;SDS011;20066;48.764;9.176;2024-03-22T08:56:05;78.77;;;6.37;;
549;SDS011;20066;48.764;9.176;2024-03-22T08:58:35;76.60;;;7.33;;
549;SDS011;20066;48.764;9.176;2024-03-22T09:01:01;96.90;;;27.07;;
549;SDS011;20066;48.764;9.176;2024-03-22T09:03:30;243.23;;;231.60;;
549;SDS011;20066;48.764;9.176;2024-03-22T09:05:58;318.37;;;303.17;;
549;SDS011;20066;48.764;9.176;2024-03-22T09:08:25;162.77;;;127.53;;
549;SDS011;20066;48.764;9.176;2024-03-22T09:10:53;168.03;;;93.50;;
549;SDS011;20066;48.764;9.176;2024-03-22T09:13:21;394.27;;;375.43;;
549;SDS011;20066;48.764;9.176;2024-03-22T09:15:47;142.63;;;75.27;;
549;SDS011;20066;48.764;9.176;2024-03-22T09:18:14;380.53;;;362.37;;
549;SDS011;20066;48.764;9.176;2024-03-22T09:20:42;143.67;;;67.27;;
549;SDS011;20066;48.764;9.176;2024-03-22T09:23:10;171.60;;;136.57;;
549;SDS011;20066;48.764;9.176;2024-03-22T09:25:39;423.20;;;403.00;;
549;SDS011;20066;48.764;9.176;2024-03-22T09:28:22;477.20;;;454.40;;
549;SDS011;20066;48.764;9.176;2024-03-22T09:30:50;272.83;;;259.77;;
549;SDS011;20066;48.764;9.176;2024-03-22T09:33:27;332.90;;;317.00;;
549;SDS011;20066;48.764;9.176;2024-03-22T09:35:59;564.93;;;537.97;;
549;SDS011;20066;48.764;9.176;2024-03-22T09:38:39;89.20;;;8.23;;
549;SDS011;20066;48.764;9.176;2024-03-22T09:41:10;49.47;;;6.10;;
549;SDS011;20066;48.764;9.176;2024-03-22T09:43:57;27.40;;;6.30;;
549;SDS011;20066;48.764;9.176;2024-03-22T09:46:48;12.30;;;4.23;;
549;SDS011;20066;48.764;9.176;2024-03-22T09:49:28;7.90;;;3.37;;
549;SDS011;20066;48.764;9.176;2024-03-22T09:51:55;10.53;;;3.80;;
549;SDS011;20066;48.764;9.176;2024-03-22T09:54:23;7.33;;;3.97;;
549;SDS011;20066;48.764;9.176;2024-03-22T09:56:51;5.27;;;3.27;;
549;SDS011;20066;48.764;9.176;2024-03-22T09:59:17;7.90;;;3.57;;
549;SDS011;20066;48.764;9.176;2024-03-22T10:01:44;8.07;;;3.53;;
549;SDS011;20066;48.764;9.176;2024-03-22T10:04:11;7.90;;;3.13;;
549;SDS011;20066;48.764;9.176;2024-03-22T10:06:38;7.43;;;4.10;;
549;SDS011;20066;48.764;9.176;2024-03-22T10:09:04;7.20;;;3.60;;
549;SDS011;20066;48.764;9.176;2024-03-22T10:11:31;7.67;;;3.67;;
549;SDS011;20066;48.764;9.176;2024-03-22T10:13:59;9.17;;;3.60;;
549;SDS011;20066;48.764;9.176;2024-03-22T10:16:32;8.43;;;3.90;;
549;SDS011;20066;48.764;9.176;2024-03-22T10:18:59;10.07;;;4.20;;
549;SDS011;20066;48.764;9.176;2024-03-22T10:21:26;8.20;;;3.83;;
549;SDS011;20066;48.764;9.176;2024-03-22T10:23:54;7.13;;;3.80;;
549;SDS011;20066;48.764;9.176;2024-03-22T10:26:21;7.97;;;3.90;;
549;SDS011;20066;48.764;9.176;2024-03-22T10:28:47;10.60;;;5.00;;
549;SDS011;20066;48.764;9.176;2024-03-22T10:31:14;7.10;;;3.70;;
549;SDS011;20066;48.764;9.176;2024-03-22T10:33:40;10.17;;;4.10;;
549;SDS011;20066;48.764;9.176;2024-03-22T10:36:07;8.80;;;3.60;;
549;SDS011;20066;48.764;9.176;2024-03-22T10:38:38;6.90;;;3.90;;
549;SDS011;20066;48.764;9.176;2024-03-22T10:41:06;10.77;;;4.80;;
549;SDS011;20066;48.764;9.176;2024-03-22T10:43:32;6.60;;;4.10;;
549;SDS011;20066;48.764;9.176;2024-03-22T10:46:01;8.00;;;4.10;;
549;SDS011;20066;48.764;9.176;2024-03-22T10:48:29;8.63;;;4.27;;
549;SDS011;20066;48.764;9.176;2024-03-22T10:50:59;10.50;;;4.37;;
549;SDS011;20066;48.764;9.176;2024-03-22T10:53:30;6.67;;;4.30;;
549;SDS011;20066;48.764;9.176;2024-03-22T10:56:10;7.43;;;4.23;;
549;SDS011;20066;48.764;9.176;2024-03-22T10:58:41;10.10;;;4.07;;
549;SDS011;20066;48.764;9.176;2024-03-22T11:01:21;7.10;;;4.07;;
549;SDS011;20066;48.764;9.176;2024-03-22T11:03:50;12.53;;;4.80;;
549;SDS011;20066;48.764;9.176;2024-03-22T11:06:18;9.97;;;5.80;;
549;SDS011;20066;48.764;9.176;2024-03-22T11:08:49;11.67;;;4.90;;
549;SDS011;20066;48.764;9.176;2024-03-22T11:11:17;8.50;;;4.50;;
549;SDS011;20066;48.764;9.176;2024-03-22T11:13:46;13.67;;;5.50;;
549;SDS011;20066;48.764;9.176;2024-03-22T11:16:14;9.33;;;4.63;;
549;SDS011;20066;48.764;9.176;2024-03-22T11:18:40;11.93;;;5.13;;
549;SDS011;20066;48.764;9.176;2024-03-22T11:21:07;9.13;;;4.20;;
549;SDS011;20066;48.764;9.176;2024-03-22T11:23:37;10.10;;;4.20;;
549;SDS011;20066;48.764;9.176;2024-03-22T11:26:05;10.47;;;4.93;;
549;SDS011;20066;48.764;9.176;2024-03-22T11:28:33;8.03;;;4.00;;
549;SDS011;20066;48.764;9.176;2024-03-22T11:31:00;8.43;;;3.70;;
549;SDS011;20066;48.764;9.176;2024-03-22T11:33:26;6.20;;;3.40;;
549;SDS011;20066;48.764;9.176;2024-03-22T11:35:53;8.67;;;3.87;;
549;SDS011;20066;48.764;9.176;2024-03-22T11:38:19;5.40;;;3.20;;
549;SDS011;20066;48.764;9.176;2024-03-22T11:40:48;4.30;;;2.80;;
549;SDS011;20066;48.764;9.176;2024-03-22T11:43:13;4.50;;;2.50;;
549;SDS011;20066;48.764;9.176;2024-03-22T11:45:42;6.73;;;2.67;;
549;SDS011;20066;48.764;9.176;2024-03-22T11:48:09;6.60;;;3.10;;
549;SDS011;20066;48.764;9.176;2024-03-22T11:50:37;12.80;;;4.23;;
549;SDS011;20066;48.764;9.176;2024-03-22T11:53:04;6.60;;;2.40;;
549;SDS011;20066;48.764;9.176;2024-03-22T11:55:32;7.00;;;3.73;;
549;SDS011;20066;48.764;9.176;2024-03-22T11:57:58;6.40;;;3.40;;
549;SDS011;20066;48.764;9.176;2024-03-22T12:00:25;8.67;;;3.17;;
549;SDS011;20066;48.764;9.176;2024-03-22T12:02:52;8.57;;;3.37;;
549;SDS011;20066;48.764;9.176;2024-03-22T12:05:20;8.73;;;4.50;;
549;SDS011;20066;48.764;9.176;2024-03-22T12:07:46;13.10;;;5.33;;
549;SDS011;20066;48.764;9.176;2024-03-22T12:10:13;8.00;;;4.23;;
549;SDS011;20066;48.764;9.176;2024-03-22T12:12:39;7.50;;;4.00;;
549;SDS011;20066;48.764;9.176;2024-03-22T12:15:06;10.10;;;4.87;;
549;SDS011;20066;48.764;9.176;2024-03-22T12:17:32;10.07;;;4.17;;
549;SDS011;20066;48.764;9.176;2024-03-22T12:20:01;9.50;;;4.97;;
549;SDS011;20066;48.764;9.176;2024-03-22T12:22:27;11.10;;;5.10;;
549;SDS011;20066;48.764;9.176;2024-03-22T12:24:54;11.80;;;5.70;;
549;SDS011;20066;48.764;9.176;2024-03-22T12:27:20;7.70;;;4.23;;
549;SDS011;20066;48.764;9.176;2024-03-22T12:29:47;8.17;;;3.60;;
549;SDS011;20066;48.764;9.176;2024-03-22T12:32:12;6.33;;;3.17;;
549;SDS011;20066;48.764;9.176;2024-03-22T12:34:40;9.53;;;2.90;;
549;SDS011;20066;48.764;9.176;2024-03-22T12:37:06;8.03;;;2.80;;
549;SDS011;20066;48.764;9.176;2024-03-22T12:39:33;5.33;;;3.00;;
549;SDS011;20066;48.764;9.176;2024-03-22T12:42:00;4.87;;;2.77;;
549;SDS011;20066;48.764;9.176;2024-03-22T12:44:26;4.77;;;2.70;;
549;SDS011;20066;48.764;9.176;2024-03-22T12:46:56;10.70;;;3.20;;
549;SDS011;20066;48.764;9.176;2024-03-22T12:49:23;4.10;;;2.57;;
549;SDS011;20066;48.764;9.176;2024-03-22T12:51:49;6.27;;;3.00;;
549;SDS011;20066;48.764;9.176;2024-03-22T12:54:15;7.13;;;3.70;;
549;SDS011;20066;48.764;9.176;2024-03-22T12:56:44;3.90;;;2.23;;
549;SDS011;20066;48.764;9.176;2024-03-22T12:59:11;7.90;;;3.30;;
549;SDS011;20066;48.764;9.176;2024-03-22T13:01:37;7.67;;;3.30;;
549;SDS011;20066;48.764;9.176;2024-03-22T13:04:04;5.13;;;3.10;;
549;SDS011;20066;48.764;9.176;2024-03-22T13:06:30;4.90;;;2.83;;
549;SDS011;20066;48.764;9.176;2024-03-22T13:09:00;6.50;;;3.57;;
549;SDS011;20066;48.764;9.176;2024-03-22T13:11:26;6.40;;;2.80;;
549;SDS011;20066;48.764;9.176;2024-03-22T13:13:53;5.10;;;2.77;;
549;SDS011;20066;48.764;9.176;2024-03-22T13:16:19;5.40;;;2.90;;
549;SDS011;20066;48.764;9.176;2024-03-22T13:18:46;5.30;;;3.20;;
549;SDS011;20066;48.764;9.176;2024-03-22T13:21:11;7.83;;;3.60;;
549;SDS011;20066;48.764;9.176;2024-03-22T13:23:38;7.70;;;3.87;;
549;SDS011;20066;48.764;9.176;2024-03-22T13:26:04;7.23;;;3.73;;
549;SDS011;20066;48.764;9.176;2024-03-22T13:28:32;12.03;;;3.83;;
549;SDS011;20066;48.764;9.176;2024-03-22T13:31:04;8.00;;;3.97;;
549;SDS011;20066;48.764;9.176;2024-03-22T13:33:35;10.57;;;4.23;;
549;SDS011;20066;48.764;9.176;2024-03-22T13:36:01;9.63;;;4.60;;
549;SDS011;20066;48.764;9.176;2024-03-22T13:38:29;13.03;;;3.87;;
549;SDS011;20066;48.764;9.176;2024-03-22T13:40:56;13.37;;;4.03;;
549;SDS011;20066;48.764;9.176;2024-03-22T13:43:23;10.03;;;4.10;;
549;SDS011;20066;48.764;9.176;2024-03-22T13:45:51;7.53;;;3.77;;
549;SDS011;20066;48.764;9.176;2024-03-22T13:48:20;8.63;;;3.63;;
549;SDS011;20066;48.764;9.176;2024-03-22T13:50:53;8.53;;;4.03;;
549;SDS011;20066;48.764;9.176;2024-03-22T13:53:21;8.37;;;3.40;;
549;SDS011;20066;48.764;9.176;2024-03-22T13:55:48;9.53;;;3.60;;
549;SDS011;20066;48.764;9.176;2024-03-22T13:58:19;6.20;;;3.60;;
549;SDS011;20066;48.764;9.176;2024-03-22T14:00:44;6.53;;;4.17;;
549;SDS011;20066;48.764;9.176;2024-03-22T14:03:11;6.43;;;3.10;;
549;SDS011;20066;48.764;9.176;2024-03-22T14:05:37;8.40;;;3.33;;
549;SDS011;20066;48.764;9.176;2024-03-22T14:08:04;10.80;;;3.90;;
549;SDS011;20066;48.764;9.176;2024-03-22T14:10:31;7.70;;;3.80;;
549;SDS011;20066;48.764;9.176;2024-03-22T14:12:58;8.20;;;4.27;;
549;SDS011;20066;48.764;9.176;2024-03-22T14:15:24;10.70;;;4.30;;
549;SDS011;20066;48.764;9.176;2024-03-22T14:17:52;11.33;;;4.67;;
549;SDS011;20066;48.764;9.176;2024-03-22T14:20:18;9.87;;;4.80;;
549;SDS011;20066;48.764;9.176;2024-03-22T14:22:45;8.87;;;4.60;;
549;SDS011;20066;48.764;9.176;2024-03-22T14:25:13;9.57;;;4.60;;
549;SDS011;20066;48.764;9.176;2024-03-22T14:27:40;9.67;;;4.63;;
549;SDS011;20066;48.764;9.176;2024-03-22T14:30:10;12.70;;;5.40;;
549;SDS011;20066;48.764;9.176;2024-03-22T14:32:38;19.10;;;6.43;;
549;SDS011;20066;48.764;9.176;2024-03-22T14:35:04;18.43;;;5.30;;
549;SDS011;20066;48.764;9.176;2024-03-22T14:37:31;18.10;;;4.90;;
549;SDS011;20066;48.764;9.176;2024-03-22T14:39:57;19.53;;;5.50;;
549;SDS011;20066;48.764;9.176;2024-03-22T14:42:25;21.70;;;5.73;;
549;SDS011;20066;48.764;9.176;2024-03-22T14:44:51;12.77;;;4.50;;
549;SDS011;20066;48.764;9.176;2024-03-22T14:47:20;10.30;;;3.57;;
549;SDS011;20066;48.764;9.176;2024-03-22T14:49:48;10.60;;;3.67;;
549;SDS011;20066;48.764;9.176;2024-03-22T14:52:16;15.30;;;3.83;;
549;SDS011;20066;48.764;9.176;2024-03-22T14:54:42;11.73;;;3.50;;
549;SDS011;20066;48.764;9.176;2024-03-22T14:57:09;9.33;;;2.93;;
549;SDS011;20066;48.764;9.176;2024-03-22T14:59:36;8.50;;;3.10;;
549;SDS011;20066;48.764;9.176;2024-03-22T15:02:02;7.77;;;2.77;;
549;SDS011;20066;48.764;9.176;2024-03-22T15:04:28;6.30;;;2.70;;